createdAt,value
2023-04-24T00:03:20.927Z,21.8
2023-04-24T00:13:21.193Z,23.7
2023-04-24T00:23:21.221Z,21.8
2023-04-24T00:33:20.982Z,21.8
2023-04-24T00:43:21.105Z,22.3
2023-04-24T00:53:21.819Z,22
2023-04-24T01:03:22.821Z,21.9
2023-04-24T01:13:22.297Z,21.9
2023-04-24T01:23:23.530Z,23.8
2023-04-24T01:33:23.976Z,23.6
2023-04-24T01:43:24.849Z,21.9
2023-04-24T01:53:24.792Z,21.8
2023-04-24T02:03:24.315Z,21.7
2023-04-24T02:13:25.111Z,23.7
2023-04-24T02:23:25.065Z,21.8
2023-04-24T02:33:25.103Z,21.9
2023-04-24T02:43:25.739Z,23.9
2023-04-24T02:53:26.036Z,21.7
2023-04-24T03:03:07.236Z,21.6
2023-04-24T03:13:07.876Z,21.7
2023-04-24T03:23:07.563Z,21.5
2023-04-24T03:33:07.283Z,21.3
2023-04-24T03:43:06.838Z,21.4
2023-04-24T03:53:07.614Z,21.8
2023-04-24T04:03:10.417Z,23.8
2023-04-24T04:13:19.063Z,23.9
2023-04-24T04:23:24.387Z,22.9
2023-04-24T04:33:27.049Z,23.5
2023-04-24T04:43:29.409Z,22.1
2023-04-24T04:53:30.212Z,21.9
2023-04-24T05:03:32.415Z,22.4
2023-04-24T05:13:39.679Z,21.8
2023-04-24T05:23:32.868Z,21.9
2023-04-24T05:33:34.301Z,22.9
2023-04-24T05:43:40.996Z,22.5
2023-04-24T05:53:53.643Z,27.4
2023-04-24T06:04:09.964Z,27.6
2023-04-24T06:14:25.623Z,27.6
2023-04-24T06:24:42.282Z,27
2023-04-24T06:34:59.555Z,27.6
2023-04-24T06:45:14.835Z,27.5
2023-04-24T06:55:33.278Z,28.3
2023-04-24T07:05:49.188Z,29.3
2023-04-24T07:16:07.128Z,30.3
2023-04-24T07:26:25.693Z,32.1
2023-04-24T07:36:44.651Z,29.9
2023-04-24T07:47:00.155Z,30.1
2023-04-24T07:57:15.580Z,30.3
2023-04-24T08:07:31.009Z,30.6
2023-04-24T08:17:46.493Z,30.4
2023-04-24T08:28:04.011Z,31.4
2023-04-24T08:38:24.119Z,30.9
2023-04-24T08:48:42.162Z,32.9
2023-04-24T08:59:00.357Z,30.6
2023-04-24T09:03:14.116Z,30.8
2023-04-24T09:13:31.608Z,30.4
2023-04-24T09:23:45.676Z,31.4
2023-04-24T09:34:01.934Z,30.6
2023-04-24T09:44:15.578Z,30.7
2023-04-24T09:54:32.463Z,30.6
2023-04-24T10:04:50.314Z,31.3
2023-04-24T10:15:11.799Z,30.6
2023-04-24T10:25:32.741Z,30.6
2023-04-24T10:35:52.596Z,30.8
2023-04-24T10:46:13.118Z,30.3
2023-04-24T10:56:32.899Z,30.4
2023-04-24T11:06:48.665Z,30.9
2023-04-24T11:16:52.992Z,24.9
2023-04-24T11:26:55.094Z,25.3
2023-04-24T11:37:08.664Z,29.8
2023-04-24T11:47:19.994Z,29.9
2023-04-24T11:57:37.903Z,31.3
2023-04-24T12:07:55.194Z,30
2023-04-24T12:18:15.323Z,30.2
2023-04-24T12:28:33.949Z,30.8
2023-04-24T12:38:52.522Z,30
2023-04-24T12:49:11.714Z,30.3
2023-04-24T12:59:29.375Z,30.4
2023-04-24T13:09:47.298Z,30.6
2023-04-24T13:20:07.148Z,29.8
2023-04-24T13:30:26.765Z,30.5
2023-04-24T13:40:42.646Z,29.9
2023-04-24T13:50:54.500Z,27.4
2023-04-24T15:03:09.961Z,26.5
2023-04-24T15:13:10.449Z,23.7
2023-04-24T15:23:13.538Z,26.2
2023-04-24T15:33:13.034Z,23.7
2023-04-24T15:43:12.545Z,23.8
2023-04-24T15:53:11.694Z,23.4
2023-04-24T16:03:11.715Z,24.1
2023-04-24T16:13:13.310Z,26
2023-04-24T16:23:14.990Z,25.9
2023-04-24T16:33:16.460Z,23.5
2023-04-24T16:43:17.880Z,23.8
2023-04-24T16:53:19.639Z,23.5
2023-04-24T17:03:21.982Z,23.6
2023-04-24T17:13:21.596Z,23.6
2023-04-24T17:23:22.435Z,23.3
2023-04-24T17:33:21.840Z,23.2
2023-04-24T17:43:21.600Z,25.6
2023-04-24T17:53:22.380Z,23.2
2023-04-24T18:03:22.364Z,22.9
2023-04-24T18:13:21.468Z,22.9
2023-04-24T18:23:21.667Z,22.7
2023-04-24T18:33:21.671Z,22.6
2023-04-24T18:43:20.898Z,23.1
2023-04-24T18:53:20.312Z,22.6
2023-04-24T19:03:20.574Z,22.7
2023-04-24T19:13:20.413Z,22.6
2023-04-24T19:23:20.218Z,24.1
2023-04-24T19:33:19.938Z,22.4
2023-04-24T19:43:20.066Z,22.3
2023-04-24T19:53:19.998Z,22.5
2023-04-24T20:03:31.791Z,23.8
2023-04-24T20:13:19.692Z,23.8
2023-04-24T20:23:19.251Z,22.1
2023-04-24T20:33:19.572Z,22.6
2023-04-24T20:43:20.327Z,22.5
2023-04-24T20:53:17.911Z,22.1
2023-04-24T21:03:07.093Z,22.8
2023-04-24T21:13:07.554Z,22.6
2023-04-24T21:23:07.967Z,22.3
2023-04-24T21:33:07.432Z,22.8
2023-04-24T21:43:07.941Z,22.8
2023-04-24T21:53:08.214Z,22.8
2023-04-24T22:03:09.077Z,22.6
2023-04-24T22:13:10.176Z,22.4
2023-04-24T22:23:11.609Z,22.4
2023-04-24T22:33:13.411Z,22.6
2023-04-24T22:43:15.638Z,24.4
2023-04-24T22:53:16.918Z,22.3
2023-04-24T23:03:18.770Z,24.6
2023-04-24T23:13:19.554Z,22.6
2023-04-24T23:23:18.990Z,22.6
2023-04-24T23:33:20.173Z,22.6
2023-04-24T23:43:21.050Z,22.8
2023-04-24T23:53:21.545Z,22.4
